Time;durP1;ratioP1;P1;durP2;ratioP2;P2;SDS_P1;SDS_P2;PMS_P1;PMS_P2;Temp;Humidity;BMP_temperature;BMP_pressure;BME280_temperature;BME280_humidity;BME280_pressure;Samples;Min_cycle;Max_cycle;Signal;HPM_P1;HPM_P2
2024/01/30 00:00:39;;;;;;;3.67;2.10;;;11.50;99.90;;;;;;5055539;28;20056;-20
2024/01/30 00:03:06;;;;;;;4.53;2.17;;;11.40;99.90;;;;;;5053633;28;20043;-20
2024/01/30 00:05:32;;;;;;;3.40;2.00;;;11.50;99.90;;;;;;5061189;28;20456;-21
2024/01/30 00:07:58;;;;;;;4.17;2.70;;;11.40;99.90;;;;;;5055055;28;20025;-20
2024/01/30 00:10:23;;;;;;;4.47;2.10;;;11.40;99.90;;;;;;5054004;28;20369;-22
2024/01/30 00:12:49;;;;;;;4.75;2.22;;;11.40;99.90;;;;;;5059507;28;20033;-21
2024/01/30 00:15:15;;;;;;;3.73;2.17;;;11.40;99.90;;;;;;5055935;28;20032;-21
2024/01/30 00:17:41;;;;;;;3.80;2.10;;;11.40;99.90;;;;;;5053888;28;20059;-20
2024/01/30 00:20:08;;;;;;;3.87;2.07;;;11.40;99.90;;;;;;5056729;28;20032;-19
2024/01/30 00:22:34;;;;;;;4.90;2.13;;;11.50;99.90;;;;;;5056482;28;20024;-19
2024/01/30 00:25:00;;;;;;;3.65;2.10;;;11.50;99.90;;;;;;5053702;28;20024;-19
2024/01/30 00:27:27;;;;;;;3.50;2.10;;;11.50;99.90;;;;;;5072762;28;20033;-18
2024/01/30 00:29:53;;;;;;;3.73;2.07;;;11.50;99.90;;;;;;5069202;28;20680;-18
2024/01/30 00:32:19;;;;;;;4.05;2.10;;;11.60;99.90;;;;;;5057551;28;20094;-18
2024/01/30 00:34:45;;;;;;;3.30;1.90;;;11.60;99.90;;;;;;5057876;28;20037;-18
2024/01/30 00:37:10;;;;;;;3.53;2.07;;;11.60;99.90;;;;;;5058822;28;20755;-19
2024/01/30 00:39:36;;;;;;;4.22;2.33;;;11.60;99.90;;;;;;5053961;28;20039;-18
2024/01/30 00:42:02;;;;;;;3.53;2.27;;;11.70;99.90;;;;;;5049922;28;20439;-20
2024/01/30 00:44:28;;;;;;;3.72;2.30;;;11.70;99.90;;;;;;5053890;28;20040;-18
2024/01/30 00:46:54;;;;;;;3.87;2.40;;;11.70;99.90;;;;;;5046266;28;20062;-21
2024/01/30 00:49:19;;;;;;;4.25;2.40;;;11.70;99.90;;;;;;5069183;28;20029;-23
2024/01/30 00:51:46;;;;;;;5.00;2.80;;;11.70;99.90;;;;;;5053930;28;20036;-20
2024/01/30 00:54:11;;;;;;;4.45;2.50;;;11.80;99.90;;;;;;5053911;28;20052;-23
2024/01/30 00:56:37;;;;;;;4.83;2.80;;;11.70;99.90;;;;;;5057669;28;20385;-21
2024/01/30 00:59:03;;;;;;;5.72;2.92;;;11.80;99.90;;;;;;5057687;28;20059;-20
2024/01/30 01:01:28;;;;;;;4.87;2.60;;;11.70;99.90;;;;;;5057773;28;20052;-21
2024/01/30 01:03:54;;;;;;;6.47;3.30;;;11.80;99.90;;;;;;5060323;28;20021;-20
2024/01/30 01:06:20;;;;;;;4.53;2.50;;;11.80;99.90;;;;;;5058252;28;20467;-21
2024/01/30 01:08:46;;;;;;;3.97;2.53;;;11.80;99.90;;;;;;5071458;28;20028;-23
2024/01/30 01:11:11;;;;;;;4.23;2.23;;;10.80;99.90;;;;;;5058616;28;20028;-21
2024/01/30 01:13:37;;;;;;;3.75;2.08;;;11.80;99.90;;;;;;5044427;28;20036;-21
2024/01/30 01:16:03;;;;;;;3.47;2.07;;;11.80;99.90;;;;;;5059074;28;20458;-21
2024/01/30 01:18:29;;;;;;;3.90;2.20;;;11.80;99.90;;;;;;5054460;28;20111;-23
2024/01/30 01:20:55;;;;;;;3.72;2.10;;;10.70;99.90;;;;;;5055940;28;20035;-21
2024/01/30 01:23:21;;;;;;;4.03;2.10;;;11.80;99.90;;;;;;5070093;28;20326;-20
2024/01/30 01:25:46;;;;;;;3.20;1.92;;;11.80;99.90;;;;;;5054893;28;20033;-21
2024/01/30 01:28:12;;;;;;;4.40;2.10;;;11.80;99.90;;;;;;5073416;28;20525;-21
2024/01/30 01:30:39;;;;;;;3.10;2.00;;;11.80;99.90;;;;;;5057588;28;20038;-22
2024/01/30 01:33:06;;;;;;;4.38;2.20;;;11.80;99.90;;;;;;5053288;28;20650;-23
2024/01/30 01:35:32;;;;;;;3.77;2.00;;;11.80;99.90;;;;;;5055955;28;20552;-21
2024/01/30 01:38:00;;;;;;;3.92;1.90;;;11.70;99.90;;;;;;5057234;28;20033;-20
2024/01/30 01:40:27;;;;;;;3.85;1.92;;;11.70;99.90;;;;;;5060042;28;20033;-20
2024/01/30 01:42:54;;;;;;;5.13;2.10;;;11.70;99.90;;;;;;5053758;28;20423;-20
2024/01/30 01:45:21;;;;;;;3.07;1.80;;;11.70;99.90;;;;;;5056538;28;20013;-21
2024/01/30 01:47:55;;;;;;;3.78;2.00;;;11.70;99.90;;;;;;5059198;28;20211;-21
2024/01/30 01:50:22;;;;;;;4.03;2.15;;;11.70;99.90;;;;;;5062378;28;20408;-21
2024/01/30 01:52:48;;;;;;;2.40;1.60;;;11.70;99.90;;;;;;5058638;28;20052;-22
2024/01/30 01:55:17;;;;;;;2.90;1.90;;;11.70;99.90;;;;;;5054479;28;20111;-23
2024/01/30 01:57:43;;;;;;;2.60;1.83;;;11.70;99.90;;;;;;5059710;28;20051;-19
2024/01/30 02:00:10;;;;;;;3.22;1.70;;;11.70;99.90;;;;;;5058420;28;20048;-20
2024/01/30 02:02:37;;;;;;;3.97;1.80;;;11.60;99.90;;;;;;5043174;28;20075;-22
2024/01/30 02:05:03;;;;;;;3.17;1.70;;;11.60;99.90;;;;;;5069623;28;20152;-20
2024/01/30 02:07:29;;;;;;;3.72;1.77;;;11.60;99.90;;;;;;5060064;28;20636;-22
2024/01/30 02:09:55;;;;;;;3.88;1.88;;;11.60;99.90;;;;;;5042922;28;20039;-21
2024/01/30 02:12:21;;;;;;;3.03;1.90;;;11.60;99.90;;;;;;5062690;28;20028;-21
2024/01/30 02:14:48;;;;;;;2.77;1.73;;;11.70;99.90;;;;;;5059594;28;20038;-21
2024/01/30 02:17:15;;;;;;;3.25;2.00;;;11.60;99.90;;;;;;5042868;28;20029;-22
2024/01/30 02:19:41;;;;;;;3.00;1.80;;;11.60;99.90;;;;;;5060569;28;20024;-20
2024/01/30 02:22:07;;;;;;;3.80;1.83;;;11.60;99.90;;;;;;5072158;28;20020;-20
2024/01/30 02:24:33;;;;;;;3.33;1.85;;;11.50;99.90;;;;;;5055274;28;20119;-20
2024/01/30 02:26:59;;;;;;;2.67;1.80;;;11.50;99.90;;;;;;5056298;28;20025;-20
2024/01/30 02:29:25;;;;;;;3.87;2.00;;;11.50;99.90;;;;;;5058339;28;20051;-21
2024/01/30 02:31:50;;;;;;;3.33;1.80;;;11.40;99.90;;;;;;5057784;28;20470;-19
2024/01/30 02:34:16;;;;;;;3.10;1.80;;;11.40;99.90;;;;;;5070648;28;20477;-21
2024/01/30 02:36:45;;;;;;;2.83;1.65;;;11.30;99.90;;;;;;5062025;28;20504;-20
2024/01/30 02:39:11;;;;;;;3.35;1.83;;;11.30;99.90;;;;;;5056814;28;20043;-19
2024/01/30 02:41:37;;;;;;;3.50;1.80;;;11.20;99.90;;;;;;5061501;28;20381;-18
2024/01/30 02:44:03;;;;;;;3.65;2.20;;;11.20;99.90;;;;;;5059518;28;20074;-18
2024/01/30 02:46:29;;;;;;;4.70;2.00;;;11.20;99.90;;;;;;5057449;28;20094;-17
2024/01/30 02:48:55;;;;;;;3.80;1.90;;;11.10;99.90;;;;;;5045751;28;20532;-19
2024/01/30 02:51:21;;;;;;;3.13;1.80;;;11.10;99.90;;;;;;5071063;28;20052;-19
2024/01/30 02:53:47;;;;;;;3.22;1.95;;;11.00;99.90;;;;;;5060225;28;20028;-20
2024/01/30 02:56:13;;;;;;;4.33;2.07;;;11.00;99.90;;;;;;5042114;28;20067;-18
2024/01/30 02:58:39;;;;;;;3.15;2.10;;;10.90;99.90;;;;;;5060841;28;20047;-17
2024/01/30 03:01:06;;;;;;;4.43;2.17;;;10.90;99.90;;;;;;5060084;28;20045;-18
2024/01/30 03:03:34;;;;;;;3.95;1.92;;;10.90;99.90;;;;;;5060839;28;20032;-18
2024/01/30 03:05:59;;;;;;;3.70;2.08;;;10.80;99.90;;;;;;5059411;28;20024;-18
2024/01/30 03:08:25;;;;;;;4.33;2.00;;;10.90;99.90;;;;;;5059098;28;20032;-18
2024/01/30 03:10:51;;;;;;;3.05;2.10;;;10.80;99.90;;;;;;5056016;28;20111;-18
2024/01/30 03:13:17;;;;;;;3.60;1.83;;;10.80;99.90;;;;;;5057565;28;20029;-18
2024/01/30 03:15:42;;;;;;;2.80;1.73;;;10.80;99.90;;;;;;5061052;28;20362;-18
2024/01/30 03:18:08;;;;;;;3.63;1.70;;;10.80;99.90;;;;;;5069545;28;20538;-18
2024/01/30 03:20:34;;;;;;;3.45;2.00;;;10.80;99.90;;;;;;5057843;28;20043;-18
2024/01/30 03:23:00;;;;;;;3.85;2.03;;;10.50;99.90;;;;;;5059903;28;20485;-20
2024/01/30 03:25:26;;;;;;;2.97;1.67;;;10.80;99.90;;;;;;5068119;28;20025;-18
2024/01/30 03:27:51;;;;;;;2.50;1.60;;;10.80;99.90;;;;;;5056888;28;20012;-19
2024/01/30 03:30:18;;;;;;;3.13;1.97;;;10.80;99.90;;;;;;5056340;28;20032;-18
2024/01/30 03:32:44;;;;;;;2.53;1.80;;;10.80;99.90;;;;;;5059559;28;20025;-19
2024/01/30 03:35:10;;;;;;;3.53;1.80;;;10.80;99.90;;;;;;5062275;28;20024;-18
2024/01/30 03:37:36;;;;;;;3.42;2.10;;;10.80;99.90;;;;;;5058710;28;20035;-18
2024/01/30 03:40:03;;;;;;;3.70;2.00;;;10.80;99.90;;;;;;5057464;28;20040;-20
2024/01/30 03:42:28;;;;;;;3.28;1.95;;;10.80;99.90;;;;;;5056045;28;20090;-18
2024/01/30 03:44:55;;;;;;;3.47;1.98;;;10.70;99.90;;;;;;5053802;28;20473;-18
2024/01/30 03:47:21;;;;;;;3.03;2.00;;;10.70;99.90;;;;;;5056701;28;20028;-21
2024/01/30 03:49:47;;;;;;;3.23;1.77;;;10.70;99.90;;;;;;5057551;28;20059;-20
2024/01/30 03:52:12;;;;;;;4.10;2.17;;;10.80;99.90;;;;;;5054366;28;20765;-18
2024/01/30 03:54:38;;;;;;;3.10;1.93;;;10.70;99.90;;;;;;5054443;28;20040;-17
2024/01/30 03:57:04;;;;;;;4.40;1.95;;;10.70;99.90;;;;;;5057485;28;20540;-18
2024/01/30 03:59:30;;;;;;;4.28;2.08;;;10.70;99.90;;;;;;5056232;28;20116;-18
2024/01/30 04:01:56;;;;;;;3.47;2.10;;;10.70;99.90;;;;;;5057468;28;20382;-19
2024/01/30 04:04:21;;;;;;;3.00;1.95;;;10.70;99.90;;;;;;5054861;28;20547;-19
2024/01/30 04:06:47;;;;;;;3.47;1.90;;;10.80;99.90;;;;;;5059111;28;20496;-19
2024/01/30 04:09:13;;;;;;;3.45;1.98;;;10.80;99.90;;;;;;5041111;28;20070;-19
2024/01/30 04:11:41;;;;;;;2.63;1.65;;;11.80;99.90;;;;;;5053939;28;20630;-18
2024/01/30 04:14:07;;;;;;;3.50;1.77;;;10.80;99.90;;;;;;5055667;28;20043;-19
2024/01/30 04:16:33;;;;;;;3.23;1.70;;;10.90;99.90;;;;;;5053840;28;20033;-18
2024/01/30 04:18:59;;;;;;;3.00;1.77;;;10.90;99.90;;;;;;5071638;28;20035;-21
2024/01/30 04:21:24;;;;;;;3.10;1.80;;;10.90;99.90;;;;;;5059141;28;20606;-20
2024/01/30 04:23:51;;;;;;;4.45;1.92;;;11.00;99.90;;;;;;5054645;28;20469;-20
2024/01/30 04:26:17;;;;;;;3.08;1.73;;;11.00;99.90;;;;;;5059402;28;20496;-20
2024/01/30 04:28:46;;;;;;;3.10;1.80;;;11.00;99.90;;;;;;5058187;28;20017;-21
2024/01/30 04:31:11;;;;;;;3.38;1.75;;;11.10;99.90;;;;;;5054971;28;20249;-20
2024/01/30 04:33:37;;;;;;;3.47;1.85;;;11.10;99.90;;;;;;5058220;28;20051;-21
2024/01/30 04:36:08;;;;;;;4.40;2.05;;;11.10;99.90;;;;;;5050728;28;20277;-20
2024/01/30 04:38:34;;;;;;;2.80;1.70;;;11.10;99.90;;;;;;5059419;28;20151;-20
2024/01/30 04:41:00;;;;;;;4.55;1.88;;;11.10;99.90;;;;;;5054934;28;20116;-20
2024/01/30 04:43:26;;;;;;;3.00;1.80;;;11.20;99.90;;;;;;5055302;28;20549;-20
2024/01/30 04:45:52;;;;;;;3.20;1.77;;;11.20;99.90;;;;;;5057200;28;20095;-23
2024/01/30 04:48:17;;;;;;;2.63;1.60;;;11.20;99.90;;;;;;5056644;28;20616;-20
2024/01/30 04:50:43;;;;;;;2.97;1.80;;;11.20;99.90;;;;;;5056185;28;20495;-21
2024/01/30 04:53:09;;;;;;;3.20;1.90;;;11.30;99.90;;;;;;5058134;28;20028;-22
2024/01/30 04:55:35;;;;;;;2.90;1.57;;;11.30;99.90;;;;;;5057773;28;20028;-22
2024/01/30 04:58:01;;;;;;;3.03;1.80;;;11.40;99.90;;;;;;5059062;28;20395;-19
2024/01/30 05:00:27;;;;;;;3.63;2.03;;;11.40;99.90;;;;;;5058112;28;20041;-20
2024/01/30 05:02:52;;;;;;;3.50;2.10;;;11.40;99.90;;;;;;5056064;28;20061;-20
2024/01/30 05:05:18;;;;;;;3.50;1.93;;;11.50;99.90;;;;;;5053648;28;20039;-20
2024/01/30 05:07:44;;;;;;;4.13;2.08;;;11.50;99.90;;;;;;5055509;28;20299;-19
2024/01/30 05:10:09;;;;;;;3.30;1.93;;;11.60;99.90;;;;;;5070248;28;20086;-20
2024/01/30 05:12:35;;;;;;;3.05;1.90;;;11.60;99.90;;;;;;5058494;28;20055;-20
2024/01/30 05:15:01;;;;;;;4.60;2.10;;;11.70;99.90;;;;;;5054387;28;20103;-20
2024/01/30 05:17:26;;;;;;;2.78;1.88;;;11.70;99.90;;;;;;5055273;28;20025;-20
2024/01/30 05:19:52;;;;;;;4.20;1.73;;;11.70;99.90;;;;;;5056040;28;20411;-20
2024/01/30 05:22:18;;;;;;;4.57;2.30;;;11.80;99.90;;;;;;5076709;28;20055;-20
2024/01/30 05:24:45;;;;;;;4.30;2.20;;;11.80;99.90;;;;;;5061875;28;20370;-19
2024/01/30 05:27:13;;;;;;;4.07;2.17;;;11.90;99.90;;;;;;5062791;28;20374;-20
2024/01/30 05:29:39;;;;;;;3.92;2.03;;;11.90;99.90;;;;;;5063589;28;20035;-20
2024/01/30 05:32:05;;;;;;;3.83;2.20;;;12.00;99.90;;;;;;5059062;28;20032;-18
2024/01/30 05:34:31;;;;;;;2.80;1.83;;;12.00;99.90;;;;;;5064421;28;20384;-19
2024/01/30 05:36:57;;;;;;;3.65;1.90;;;12.00;99.90;;;;;;5057560;28;20025;-21
2024/01/30 05:39:23;;;;;;;4.50;2.43;;;12.00;99.90;;;;;;5060661;28;20113;-18
2024/01/30 05:41:48;;;;;;;3.58;2.00;;;12.00;99.90;;;;;;5043049;28;20111;-19
2024/01/30 05:44:14;;;;;;;2.83;1.63;;;12.10;99.90;;;;;;5063165;28;20024;-18
2024/01/30 05:46:40;;;;;;;4.13;1.90;;;12.10;99.90;;;;;;5061202;28;20126;-18
2024/01/30 05:49:05;;;;;;;3.83;2.03;;;12.10;99.90;;;;;;5075826;28;20055;-19
2024/01/30 05:51:31;;;;;;;3.90;1.90;;;12.10;99.90;;;;;;5057050;28;20287;-18
2024/01/30 05:53:57;;;;;;;3.65;2.42;;;12.10;99.90;;;;;;5060008;28;20133;-18
2024/01/30 05:56:23;;;;;;;3.37;2.00;;;12.10;99.90;;;;;;5055003;28;20040;-18
2024/01/30 05:58:50;;;;;;;3.65;2.00;;;12.10;99.90;;;;;;5057093;28;20456;-17
2024/01/30 06:01:16;;;;;;;3.67;1.92;;;12.10;99.90;;;;;;5051743;28;20044;-19
2024/01/30 06:03:43;;;;;;;2.30;1.43;;;12.20;99.90;;;;;;5052527;28;20427;-18
2024/01/30 06:06:09;;;;;;;4.43;1.92;;;12.20;99.90;;;;;;5057926;28;20070;-18
2024/01/30 06:08:34;;;;;;;3.75;2.10;;;12.20;99.90;;;;;;5059259;28;20025;-17
2024/01/30 06:11:00;;;;;;;4.27;2.23;;;12.20;99.90;;;;;;5056799;28;20082;-17
2024/01/30 06:13:26;;;;;;;3.07;1.93;;;12.20;99.90;;;;;;5039391;28;20313;-18
2024/01/30 06:15:52;;;;;;;3.58;2.00;;;12.20;99.90;;;;;;5060594;28;20020;-20
2024/01/30 06:18:18;;;;;;;3.40;2.00;;;12.20;99.90;;;;;;5057589;28;20162;-18
2024/01/30 06:20:44;;;;;;;2.53;1.70;;;12.30;99.90;;;;;;5060953;28;20147;-19
2024/01/30 06:23:10;;;;;;;3.33;2.05;;;12.30;99.90;;;;;;5072331;28;20025;-18
2024/01/30 06:25:35;;;;;;;3.22;1.90;;;12.30;99.90;;;;;;5057535;28;20029;-18
2024/01/30 06:28:01;;;;;;;4.10;2.10;;;12.30;99.90;;;;;;5075803;28;20065;-18
2024/01/30 06:30:27;;;;;;;4.03;2.20;;;12.30;99.90;;;;;;5059868;28;20017;-18
2024/01/30 06:32:52;;;;;;;3.50;2.40;;;12.30;99.90;;;;;;5058148;28;20021;-19
2024/01/30 06:35:18;;;;;;;4.30;2.53;;;12.30;99.90;;;;;;5059848;28;20083;-18
2024/01/30 06:37:44;;;;;;;4.38;2.30;;;12.40;99.90;;;;;;5060722;28;20032;-18
2024/01/30 06:40:10;;;;;;;4.68;2.22;;;12.30;99.90;;;;;;5058863;28;20056;-23
2024/01/30 06:42:36;;;;;;;3.23;2.10;;;12.30;99.90;;;;;;5055288;28;20400;-21
2024/01/30 06:45:02;;;;;;;3.50;2.00;;;12.30;99.90;;;;;;5058519;28;20042;-21
2024/01/30 06:47:28;;;;;;;3.53;2.47;;;12.30;99.90;;;;;;5056215;28;20060;-20
2024/01/30 06:49:54;;;;;;;3.77;2.10;;;12.30;99.90;;;;;;5057870;28;20443;-19
2024/01/30 06:52:20;;;;;;;4.18;2.30;;;12.30;99.90;;;;;;5057763;28;20063;-20
2024/01/30 06:54:45;;;;;;;3.43;2.20;;;12.30;99.90;;;;;;5057821;28;20334;-19
2024/01/30 06:57:12;;;;;;;2.97;2.00;;;12.30;99.90;;;;;;5058117;28;20033;-20
2024/01/30 06:59:43;;;;;;;3.58;2.22;;;12.30;99.90;;;;;;5059747;28;20476;-19
2024/01/30 07:02:12;;;;;;;4.77;2.40;;;12.30;99.90;;;;;;5058117;28;20028;-20
2024/01/30 07:04:39;;;;;;;3.70;2.00;;;12.30;99.90;;;;;;5055782;28;20039;-21
2024/01/30 07:07:05;;;;;;;4.25;2.22;;;11.30;99.90;;;;;;5057339;28;20024;-22
2024/01/30 07:09:31;;;;;;;4.95;2.20;;;12.30;99.90;;;;;;5042057;28;20107;-20
2024/01/30 07:11:58;;;;;;;3.72;2.30;;;12.30;99.90;;;;;;5058471;28;20025;-21
2024/01/30 07:14:25;;;;;;;4.97;2.50;;;12.30;99.90;;;;;;5059391;28;20104;-20
2024/01/30 07:16:51;;;;;;;3.50;2.13;;;12.30;99.90;;;;;;5055557;28;20511;-20
2024/01/30 07:19:16;;;;;;;4.05;2.30;;;12.40;99.90;;;;;;5053779;28;20036;-20
2024/01/30 07:21:42;;;;;;;5.00;2.30;;;12.40;99.90;;;;;;5060496;28;20028;-18
2024/01/30 07:24:08;;;;;;;3.47;2.08;;;12.40;99.90;;;;;;5058627;28;20567;-19
2024/01/30 07:26:35;;;;;;;3.77;2.13;;;12.40;99.90;;;;;;5057189;28;20716;-18
2024/01/30 07:29:01;;;;;;;3.13;2.00;;;12.40;99.90;;;;;;5055430;28;20599;-19
2024/01/30 07:31:27;;;;;;;4.50;2.42;;;12.50;99.90;;;;;;5057158;28;20665;-18
2024/01/30 07:33:54;;;;;;;4.47;2.37;;;12.50;99.90;;;;;;5056942;28;20028;-19
2024/01/30 07:36:20;;;;;;;4.83;2.70;;;12.50;99.90;;;;;;5054585;28;20309;-19
2024/01/30 07:38:45;;;;;;;5.40;3.00;;;12.50;99.90;;;;;;5058163;28;20036;-18
2024/01/30 07:41:11;;;;;;;5.15;2.80;;;12.50;99.90;;;;;;5054238;28;20021;-17
2024/01/30 07:43:39;;;;;;;4.83;2.67;;;12.50;99.90;;;;;;5049205;28;20138;-18
2024/01/30 07:46:06;;;;;;;6.72;3.42;;;11.50;99.90;;;;;;5055181;28;20496;-18
2024/01/30 07:48:33;;;;;;;6.65;3.28;;;12.60;99.90;;;;;;5055808;28;20536;-18
2024/01/30 07:50:59;;;;;;;4.78;2.85;;;12.60;99.90;;;;;;5050652;28;20036;-21
2024/01/30 07:53:25;;;;;;;4.30;2.50;;;12.60;99.90;;;;;;5053763;28;20085;-20
2024/01/30 07:55:52;;;;;;;4.88;2.75;;;12.70;99.90;;;;;;5055570;28;20578;-21
2024/01/30 07:58:17;;;;;;;4.65;2.70;;;12.70;99.90;;;;;;5057267;28;20020;-21
2024/01/30 08:00:43;;;;;;;4.60;2.60;;;12.70;99.90;;;;;;5053623;28;20101;-20
2024/01/30 08:03:09;;;;;;;4.65;2.53;;;12.80;99.90;;;;;;5054122;28;20028;-20
2024/01/30 08:05:35;;;;;;;5.73;2.37;;;12.80;99.90;;;;;;5055174;28;20032;-20
2024/01/30 08:08:00;;;;;;;4.72;2.80;;;12.90;99.90;;;;;;5055893;28;20024;-20
2024/01/30 08:10:26;;;;;;;4.93;2.80;;;12.90;99.90;;;;;;5055309;28;20036;-19
2024/01/30 08:12:52;;;;;;;6.00;2.90;;;13.00;99.90;;;;;;5056824;28;20031;-20
2024/01/30 08:15:18;;;;;;;5.77;3.13;;;13.00;99.90;;;;;;5055718;28;20024;-21
2024/01/30 08:17:44;;;;;;;5.33;2.90;;;13.00;99.90;;;;;;5055902;28;20306;-21
2024/01/30 08:20:11;;;;;;;5.43;3.08;;;13.10;99.90;;;;;;5053916;28;20589;-19
2024/01/30 08:22:40;;;;;;;5.63;3.20;;;13.10;99.90;;;;;;5055803;28;20081;-20
2024/01/30 08:25:06;;;;;;;5.60;3.10;;;13.20;99.90;;;;;;5057424;28;20017;-20
2024/01/30 08:27:32;;;;;;;5.80;3.13;;;13.20;99.90;;;;;;5066726;28;20051;-20
2024/01/30 08:29:58;;;;;;;6.13;3.15;;;13.10;99.90;;;;;;5056600;28;20071;-18
2024/01/30 08:32:24;;;;;;;6.85;3.60;;;13.40;99.90;;;;;;5055007;28;20028;-19
2024/01/30 08:34:49;;;;;;;7.00;3.50;;;13.40;99.90;;;;;;5057881;28;20029;-18
2024/01/30 08:37:16;;;;;;;5.68;3.30;;;13.40;99.90;;;;;;5053371;28;20249;-19
2024/01/30 08:39:43;;;;;;;6.65;3.65;;;13.50;99.90;;;;;;5057943;28;20457;-18
2024/01/30 08:42:09;;;;;;;5.77;3.13;;;13.50;99.90;;;;;;5053273;28;20111;-19
2024/01/30 08:44:34;;;;;;;5.80;3.42;;;13.50;99.90;;;;;;5057157;28;20114;-18
2024/01/30 08:47:00;;;;;;;5.47;3.00;;;13.60;99.90;;;;;;5057532;28;20016;-19
2024/01/30 08:49:26;;;;;;;6.00;3.30;;;13.60;99.90;;;;;;5071177;28;20333;-18
2024/01/30 08:51:51;;;;;;;7.03;3.30;;;13.60;99.90;;;;;;5052845;28;20108;-19
2024/01/30 08:54:17;;;;;;;6.55;3.20;;;13.70;99.90;;;;;;5060868;28;20030;-20
2024/01/30 08:56:43;;;;;;;7.17;3.47;;;13.70;99.90;;;;;;5054602;28;20037;-18
2024/01/30 08:59:09;;;;;;;5.30;3.45;;;13.70;99.90;;;;;;5055604;28;20056;-17
2024/01/30 09:01:34;;;;;;;6.90;3.30;;;13.70;99.90;;;;;;5036387;28;20041;-18
2024/01/30 09:04:00;;;;;;;4.30;2.80;;;13.70;99.90;;;;;;5056517;28;20017;-18
2024/01/30 09:06:27;;;;;;;6.87;3.30;;;13.80;99.90;;;;;;5056389;28;20112;-19
2024/01/30 09:08:53;;;;;;;7.65;3.00;;;13.80;99.90;;;;;;5054416;28;20116;-21
2024/01/30 09:11:19;;;;;;;5.40;2.95;;;13.90;99.90;;;;;;5052261;28;20135;-19
2024/01/30 09:13:45;;;;;;;8.20;3.50;;;13.90;99.90;;;;;;5053653;28;20028;-19
2024/01/30 09:16:11;;;;;;;6.97;3.05;;;13.80;99.90;;;;;;5051867;28;20536;-19
2024/01/30 09:18:36;;;;;;;5.00;3.05;;;13.90;99.90;;;;;;5053946;28;20056;-20
2024/01/30 09:21:02;;;;;;;7.30;3.23;;;13.90;99.90;;;;;;5053528;28;20228;-20
2024/01/30 09:23:28;;;;;;;6.40;3.30;;;13.90;99.90;;;;;;5054644;28;20029;-21
2024/01/30 09:25:54;;;;;;;6.10;3.30;;;13.90;99.90;;;;;;5055164;28;20017;-20
2024/01/30 09:28:20;;;;;;;7.97;3.40;;;13.90;99.90;;;;;;5055786;28;20205;-20
2024/01/30 09:30:46;;;;;;;7.13;3.40;;;13.90;99.90;;;;;;5057007;28;20062;-20
2024/01/30 09:33:11;;;;;;;7.67;3.90;;;14.00;99.90;;;;;;5056843;28;20039;-20
2024/01/30 09:35:37;;;;;;;8.52;4.35;;;13.90;99.90;;;;;;5054142;28;20476;-19
2024/01/30 09:38:03;;;;;;;5.70;3.53;;;14.00;99.90;;;;;;5054099;28;20025;-20
2024/01/30 09:40:29;;;;;;;10.73;4.82;;;13.80;99.90;;;;;;5056594;28;20570;-18
2024/01/30 09:42:55;;;;;;;8.13;3.90;;;14.00;99.90;;;;;;5055058;28;20218;-18
2024/01/30 09:45:25;;;;;;;5.43;3.40;;;14.00;99.90;;;;;;5069228;28;20024;-19
2024/01/30 09:47:51;;;;;;;6.57;3.72;;;14.00;99.90;;;;;;5067120;28;20029;-19
2024/01/30 09:50:17;;;;;;;7.93;3.60;;;14.10;99.90;;;;;;5053614;28;20298;-19
2024/01/30 09:52:46;;;;;;;6.80;3.60;;;14.10;99.90;;;;;;5056370;28;20029;-18
2024/01/30 09:55:13;;;;;;;8.57;3.90;;;14.10;99.90;;;;;;5067637;28;20353;-21
2024/01/30 09:57:39;;;;;;;6.82;3.30;;;14.10;99.90;;;;;;5052353;28;20103;-18
2024/01/30 10:00:08;;;;;;;6.13;3.58;;;14.20;99.90;;;;;;5048735;28;20385;-21
2024/01/30 10:02:37;;;;;;;7.43;3.90;;;14.20;99.90;;;;;;5067513;28;20028;-18
2024/01/30 10:05:03;;;;;;;5.93;3.80;;;14.20;99.90;;;;;;5055381;28;20251;-19
2024/01/30 10:07:30;;;;;;;6.47;4.07;;;14.20;99.90;;;;;;5056457;28;20088;-19
2024/01/30 10:09:56;;;;;;;6.80;4.30;;;14.20;99.90;;;;;;5056637;28;20025;-18
2024/01/30 10:12:31;;;;;;;5.85;3.60;;;14.20;99.90;;;;;;5070684;28;20036;-18
2024/01/30 10:14:57;;;;;;;6.57;3.80;;;14.10;99.90;;;;;;5060493;28;20400;-19
2024/01/30 10:17:25;;;;;;;6.32;3.85;;;14.10;99.90;;;;;;5075571;28;20078;-19
2024/01/30 10:19:51;;;;;;;5.90;3.40;;;14.10;99.90;;;;;;5060619;28;20549;-18
2024/01/30 10:22:17;;;;;;;6.80;3.60;;;14.10;99.90;;;;;;5060525;28;20510;-21
2024/01/30 10:24:45;;;;;;;6.80;4.20;;;14.10;99.90;;;;;;5059501;28;20016;-21
2024/01/30 10:27:11;;;;;;;6.30;3.83;;;14.20;99.90;;;;;;5056215;28;20506;-22
2024/01/30 10:29:37;;;;;;;7.40;4.10;;;14.20;99.90;;;;;;5057823;28;20320;-20
2024/01/30 10:32:04;;;;;;;7.25;3.97;;;14.20;99.90;;;;;;5061880;28;20048;-20
2024/01/30 10:34:32;;;;;;;7.43;4.72;;;14.20;99.90;;;;;;5057467;28;20025;-19
2024/01/30 10:37:07;;;;;;;6.28;4.13;;;14.30;99.90;;;;;;5052416;28;20237;-18
2024/01/30 10:39:37;;;;;;;8.80;3.60;;;14.30;99.90;;;;;;5041306;28;20029;-18
2024/01/30 10:42:05;;;;;;;7.88;4.53;;;14.30;99.90;;;;;;5057584;28;20016;-18
2024/01/30 10:44:41;;;;;;;6.43;3.50;;;14.30;99.90;;;;;;5060525;28;20024;-18
2024/01/30 10:47:15;;;;;;;6.07;3.47;;;14.30;99.90;;;;;;5057085;28;20162;-19
2024/01/30 10:49:46;;;;;;;5.90;3.83;;;14.30;99.90;;;;;;5058202;28;20047;-18
2024/01/30 10:52:14;;;;;;;6.57;3.80;;;14.30;99.90;;;;;;5060584;28;20111;-20
2024/01/30 10:54:43;;;;;;;6.30;3.40;;;14.20;99.90;;;;;;5038711;28;20051;-20
2024/01/30 10:57:10;;;;;;;5.40;3.30;;;14.20;99.90;;;;;;5053681;28;20024;-19
2024/01/30 10:59:36;;;;;;;4.82;2.78;;;14.20;99.90;;;;;;5054371;28;20045;-21
2024/01/30 11:02:03;;;;;;;4.78;2.80;;;14.20;99.90;;;;;;5063075;28;20095;-20
2024/01/30 11:04:42;;;;;;;5.47;2.60;;;14.20;99.90;;;;;;5053264;28;20253;-19
2024/01/30 11:07:16;;;;;;;4.07;2.30;;;14.20;99.90;;;;;;5058455;28;20024;-19
2024/01/30 11:09:49;;;;;;;3.70;2.10;;;14.20;99.90;;;;;;5059590;28;20095;-22
2024/01/30 11:12:15;;;;;;;4.03;1.80;;;14.20;99.90;;;;;;5052155;28;20062;-20
2024/01/30 11:14:40;;;;;;;2.87;1.80;;;14.10;99.90;;;;;;5055921;28;20033;-20
2024/01/30 11:17:06;;;;;;;3.75;1.70;;;14.10;99.90;;;;;;5057512;28;20024;-20
2024/01/30 11:19:33;;;;;;;2.80;1.63;;;14.10;99.90;;;;;;5037061;28;20017;-19
2024/01/30 11:22:00;;;;;;;2.53;1.40;;;14.10;99.90;;;;;;5069883;28;20229;-22
2024/01/30 11:24:27;;;;;;;3.08;1.40;;;14.10;99.90;;;;;;5070800;28;20020;-19
2024/01/30 11:27:00;;;;;;;2.78;1.45;;;14.10;99.90;;;;;;5053685;28;20409;-19
2024/01/30 11:29:28;;;;;;;2.60;1.20;;;14.00;99.90;;;;;;5052991;28;20017;-20
2024/01/30 11:31:58;;;;;;;3.20;1.30;;;14.00;99.90;;;;;;5055465;28;20377;-20
2024/01/30 11:34:24;;;;;;;1.63;1.13;;;14.00;99.90;;;;;;5056758;28;20296;-19
2024/01/30 11:36:58;;;;;;;2.13;1.10;;;14.00;99.90;;;;;;5057347;28;20029;-19
2024/01/30 11:39:29;;;;;;;2.13;1.20;;;14.00;99.90;;;;;;5056613;28;20025;-21
2024/01/30 11:41:55;;;;;;;2.00;1.20;;;14.10;99.90;;;;;;5055719;28;20591;-20
2024/01/30 11:44:22;;;;;;;1.55;0.95;;;14.20;99.90;;;;;;5074968;28;20116;-20
2024/01/30 11:46:48;;;;;;;2.45;1.30;;;14.30;99.90;;;;;;5057822;28;20234;-20
2024/01/30 11:49:14;;;;;;;2.33;1.00;;;14.50;99.90;;;;;;5057475;28;20016;-20
2024/01/30 11:51:40;;;;;;;1.10;0.90;;;14.80;99.90;;;;;;5055793;28;20856;-20
2024/01/30 11:54:07;;;;;;;2.53;1.20;;;15.00;99.90;;;;;;5060015;28;20782;-19
2024/01/30 11:56:33;;;;;;;2.47;1.10;;;15.40;99.90;;;;;;5070182;28;20787;-19
2024/01/30 11:59:00;;;;;;;2.80;0.80;;;15.80;99.90;;;;;;5056753;28;20032;-20
2024/01/30 12:01:26;;;;;;;0.95;0.80;;;16.30;99.90;;;;;;5054423;28;20105;-20
2024/01/30 12:03:52;;;;;;;1.42;0.73;;;16.60;99.90;;;;;;5054353;28;20588;-19
2024/01/30 12:06:18;;;;;;;1.42;1.00;;;17.00;99.90;;;;;;5068740;28;20100;-19
2024/01/30 12:08:56;;;;;;;2.77;0.90;;;17.20;99.90;;;;;;5054242;28;20187;-20
2024/01/30 12:11:22;;;;;;;2.05;0.75;;;17.40;99.90;;;;;;5056847;28;20035;-20
2024/01/30 12:13:48;;;;;;;1.60;0.90;;;17.60;99.90;;;;;;5069750;28;20404;-20
2024/01/30 12:16:13;;;;;;;1.40;1.00;;;17.80;99.90;;;;;;5057599;28;20059;-19
2024/01/30 12:18:39;;;;;;;2.53;0.90;;;17.90;99.90;;;;;;5054525;28;20033;-20
2024/01/30 12:21:05;;;;;;;0.80;0.70;;;18.00;99.90;;;;;;5053258;28;20814;-20
2024/01/30 12:23:31;;;;;;;1.33;0.70;;;18.00;99.90;;;;;;5057426;28;20029;-21
2024/01/30 12:25:57;;;;;;;2.30;0.90;;;18.00;99.90;;;;;;5054645;28;21000;-19
2024/01/30 12:28:23;;;;;;;3.30;0.90;;;18.10;99.90;;;;;;5055709;28;20039;-19
2024/01/30 12:30:48;;;;;;;2.17;0.70;;;18.10;99.90;;;;;;5054836;28;20044;-21
2024/01/30 12:33:21;;;;;;;1.05;0.70;;;18.20;99.90;;;;;;5054393;28;20031;-20
2024/01/30 12:35:47;;;;;;;1.67;0.53;;;18.20;99.90;;;;;;5055358;28;20025;-20
2024/01/30 12:38:14;;;;;;;1.08;0.60;;;18.10;99.90;;;;;;5057646;28;20027;-20
2024/01/30 12:40:40;;;;;;;0.70;0.70;;;18.10;99.90;;;;;;5056312;28;20055;-19
2024/01/30 12:43:06;;;;;;;1.38;0.60;;;17.70;99.90;;;;;;5052682;28;20301;-18